Time,TemperatureF,DewpointF,PressureIn,WindDirection,WindDirectionDegrees,WindSpeedMPH,WindSpeedGustMPH,Humidity,HourlyPrecipIn,Conditions,Clouds,dailyrainin,SoftwareType,DateUTC
2013-03-04 00:00:00,31.3,20.1,30.03,West,270,2.0,3.0,63,0.00,,,0.00,meteohub,2013-03-04 05:00:00,
2013-03-04 00:06:00,31.1,20.3,30.03,West,270,2.0,3.0,64,0.00,,,0.00,meteohub,2013-03-04 05:06:00,
2013-03-04 00:11:00,31.1,19.9,30.03,East,90,2.0,2.0,63,0.00,,,0.00,meteohub,2013-03-04 05:11:00,
2013-03-04 00:16:00,30.9,19.8,30.03,North,0,1.0,3.0,63,0.00,,,0.00,meteohub,2013-03-04 05:16:00,
2013-03-04 00:21:00,30.9,19.8,30.04,SW,225,1.0,3.0,63,0.00,,,0.00,meteohub,2013-03-04 05:21:00,
2013-03-04 00:26:00,30.9,19.8,30.03,NE,45,1.0,3.0,63,0.00,,,0.00,meteohub,2013-03-04 05:26:00,
2013-03-04 00:31:00,30.7,19.6,30.03,SW,225,0.0,2.0,63,0.00,,,0.00,meteohub,2013-03-04 05:31:00,
2013-03-04 00:36:00,30.6,19.4,30.03,SW,225,1.0,2.0,63,0.00,,,0.00,meteohub,2013-03-04 05:36:00,
2013-03-04 00:41:00,30.4,19.6,30.04,NE,45,0.0,2.0,64,0.00,,,0.00,meteohub,2013-03-04 05:41:00,
2013-03-04 00:46:00,30.2,19.6,30.04,West,270,2.0,2.0,64,0.00,,,0.00,meteohub,2013-03-04 05:46:00,
2013-03-04 00:51:00,30.2,19.6,30.04,West,270,2.0,2.0,64,0.00,,,0.00,meteohub,2013-03-04 05:51:00,
2013-03-04 00:56:00,30.2,19.6,30.04,NW,315,4.0,4.0,64,0.00,,,0.00,meteohub,2013-03-04 05:56:00,
2013-03-04 01:01:00,30.6,19.8,30.03,SW,225,2.0,4.0,64,0.00,,,0.00,meteohub,2013-03-04 06:01:00,
2013-03-04 01:06:00,30.9,20.1,30.03,NW,315,3.0,4.0,64,0.00,,,0.00,meteohub,2013-03-04 06:06:00,
2013-03-04 01:11:00,30.9,20.1,30.03,NW,315,2.0,5.0,64,0.00,,,0.00,meteohub,2013-03-04 06:11:00,
2013-03-04 01:16:00,31.1,20.3,30.03,NW,315,2.0,5.0,64,0.00,,,0.00,meteohub,2013-03-04 06:16:00,
2013-03-04 01:21:00,31.1,20.3,30.03,NW,315,2.0,5.0,64,0.00,,,0.00,meteohub,2013-03-04 06:21:00,
2013-03-04 01:27:00,30.7,19.6,30.03,SW,225,1.0,2.0,63,0.00,,,0.00,meteohub,2013-03-04 06:27:00,
2013-03-04 01:32:00,30.6,19.8,30.03,SW,225,0.0,2.0,64,0.00,,,0.00,meteohub,2013-03-04 06:32:00,
2013-03-04 01:37:00,30.2,19.6,30.04,East,90,0.0,2.0,64,0.00,,,0.00,meteohub,2013-03-04 06:37:00,
2013-03-04 01:42:00,29.7,19.8,30.04,NE,45,1.0,2.0,66,0.00,,,0.00,meteohub,2013-03-04 06:42:00,
2013-03-04 01:47:00,29.3,19.8,30.04,NE,45,0.0,2.0,67,0.00,,,0.00,meteohub,2013-03-04 06:47:00,
2013-03-04 01:52:00,29.1,19.2,30.04,SW,225,2.0,2.0,66,0.00,,,0.00,meteohub,2013-03-04 06:52:00,
2013-03-04 01:57:00,28.9,19.4,30.04,West,270,0.0,2.0,67,0.00,,,0.00,meteohub,2013-03-04 06:57:00,
2013-03-04 02:02:00,28.8,19.6,30.04,West,270,0.0,2.0,68,0.00,,,0.00,meteohub,2013-03-04 07:02:00,
2013-03-04 02:07:00,28.2,17.6,30.04,West,270,0.0,2.0,64,0.00,,,0.00,meteohub,2013-03-04 07:07:00,
2013-03-04 02:12:00,28.0,17.4,30.05,NE,45,0.0,1.0,64,0.00,,,0.00,meteohub,2013-03-04 07:12:00,
2013-03-04 02:17:00,27.9,17.2,30.05,SW,225,2.0,2.0,64,0.00,,,0.00,meteohub,2013-03-04 07:17:00,
2013-03-04 02:22:00,27.9,17.6,30.05,East,90,0.0,1.0,65,0.00,,,0.00,meteohub,2013-03-04 07:22:00,
2013-03-04 02:27:00,28.0,17.8,30.05,West,270,2.0,2.0,65,0.00,,,0.00,meteohub,2013-03-04 07:27:00,
2013-03-04 02:32:00,28.4,19.6,30.05,SW,225,1.0,2.0,69,0.00,,,0.00,meteohub,2013-03-04 07:32:00,
2013-03-04 02:37:00,28.6,19.4,30.05,NE,45,1.0,2.0,68,0.00,,,0.00,meteohub,2013-03-04 07:37:00,
2013-03-04 02:43:00,28.6,19.4,30.05,NW,315,1.0,2.0,68,0.00,,,0.00,meteohub,2013-03-04 07:43:00,
2013-03-04 02:48:00,28.4,19.2,30.05,South,180,2.0,2.0,68,0.00,,,0.00,meteohub,2013-03-04 07:48:00,
2013-03-04 02:53:00,28.6,19.4,30.06,NW,315,2.0,2.0,68,0.00,,,0.00,meteohub,2013-03-04 07:53:00,
2013-03-04 02:58:00,28.6,19.4,30.05,NE,45,2.0,3.0,68,0.00,,,0.00,meteohub,2013-03-04 07:58:00,
2013-03-04 03:03:00,28.6,19.4,30.05,NE,45,1.0,3.0,68,0.00,,,0.00,meteohub,2013-03-04 08:03:00,
2013-03-04 03:08:00,28.4,18.9,30.05,NW,315,1.0,3.0,67,0.00,,,0.00,meteohub,2013-03-04 08:08:00,
2013-03-04 03:13:00,28.2,17.2,30.05,SW,225,2.0,2.0,63,0.00,,,0.00,meteohub,2013-03-04 08:13:00,
2013-03-04 03:18:00,28.2,17.2,30.06,NE,45,1.0,2.0,63,0.00,,,0.00,meteohub,2013-03-04 08:18:00,
2013-03-04 03:23:00,28.2,16.9,30.06,West,270,2.0,2.0,62,0.00,,,0.00,meteohub,2013-03-04 08:23:00,
2013-03-04 03:28:00,28.2,16.9,30.06,North,0,2.0,2.0,62,0.00,,,0.00,meteohub,2013-03-04 08:28:00,
2013-03-04 03:33:00,28.2,16.9,30.06,North,0,0.0,2.0,62,0.00,,,0.00,meteohub,2013-03-04 08:33:00,
2013-03-04 03:38:00,28.2,16.5,30.06,SW,225,2.0,2.0,61,0.00,,,0.00,meteohub,2013-03-04 08:38:00,
2013-03-04 03:43:00,28.4,18.1,30.07,West,270,2.0,2.0,65,0.00,,,0.00,meteohub,2013-03-04 08:43:00,
2013-03-04 03:48:00,28.4,18.1,30.06,North,0,1.0,2.0,65,0.00,,,0.00,meteohub,2013-03-04 08:48:00,
2013-03-04 03:53:00,28.2,16.5,30.06,North,0,0.0,2.0,61,0.00,,,0.00,meteohub,2013-03-04 08:53:00,
2013-03-04 03:58:00,28.0,16.0,30.07,West,270,0.0,2.0,60,0.00,,,0.00,meteohub,2013-03-04 08:58:00,
2013-03-04 04:03:00,27.9,16.2,30.07,West,270,1.0,2.0,61,0.00,,,0.00,meteohub,2013-03-04 09:03:00,
2013-03-04 04:08:00,27.7,16.0,30.07,NE,45,0.0,2.0,61,0.00,,,0.00,meteohub,2013-03-04 09:08:00,
2013-03-04 04:13:00,27.7,16.0,30.07,West,270,2.0,2.0,61,0.00,,,0.00,meteohub,2013-03-04 09:13:00,
2013-03-04 04:18:00,27.9,16.2,30.07,West,270,2.0,2.0,61,0.00,,,0.00,meteohub,2013-03-04 09:18:00,
2013-03-04 04:24:00,27.9,16.2,30.07,NW,315,2.0,2.0,61,0.00,,,0.00,meteohub,2013-03-04 09:24:00,
2013-03-04 04:29:00,27.9,16.2,30.08,SW,225,1.0,2.0,61,0.00,,,0.00,meteohub,2013-03-04 09:29:00,
2013-03-04 04:34:00,27.9,16.2,30.08,West,270,0.0,2.0,61,0.00,,,0.00,meteohub,2013-03-04 09:34:00,
2013-03-04 04:39:00,27.7,15.6,30.08,SW,225,0.0,2.0,60,0.00,,,0.00,meteohub,2013-03-04 09:39:00,
2013-03-04 04:44:00,27.5,15.8,30.08,SW,225,0.0,2.0,61,0.00,,,0.00,meteohub,2013-03-04 09:44:00,
2013-03-04 04:49:00,27.3,15.6,30.08,SW,225,0.0,2.0,61,0.00,,,0.00,meteohub,2013-03-04 09:49:00,
2013-03-04 04:54:00,27.0,15.6,30.09,SW,225,0.0,1.0,62,0.00,,,0.00,meteohub,2013-03-04 09:54:00,
2013-03-04 04:59:00,26.8,15.4,30.09,NE,45,0.0,0.0,62,0.00,,,0.00,meteohub,2013-03-04 09:59:00,
2013-03-04 05:04:00,26.6,15.3,30.09,NE,45,0.0,0.0,62,0.00,,,0.00,meteohub,2013-03-04 10:04:00,
2013-03-04 05:09:00,26.2,15.4,30.09,NE,45,0.0,0.0,63,0.00,,,0.00,meteohub,2013-03-04 10:09:00,
2013-03-04 05:14:00,26.1,15.6,30.09,NE,45,0.0,0.0,64,0.00,,,0.00,meteohub,2013-03-04 10:14:00,
2013-03-04 05:19:00,25.9,15.8,30.09,NE,45,0.0,0.0,65,0.00,,,0.00,meteohub,2013-03-04 10:19:00,
2013-03-04 05:24:00,25.7,16.0,30.09,NE,45,0.0,0.0,66,0.00,,,0.00,meteohub,2013-03-04 10:24:00,
2013-03-04 05:29:00,25.7,16.0,30.10,NE,45,0.0,0.0,66,0.00,,,0.00,meteohub,2013-03-04 10:29:00,
2013-03-04 05:34:00,25.5,15.8,30.10,SE,135,0.0,0.0,66,0.00,,,0.00,meteohub,2013-03-04 10:34:00,
2013-03-04 05:39:00,25.5,16.2,30.10,SE,135,0.0,0.0,67,0.00,,,0.00,meteohub,2013-03-04 10:39:00,
2013-03-04 05:44:00,25.3,16.3,30.10,SE,135,0.0,0.0,68,0.00,,,0.00,meteohub,2013-03-04 10:44:00,
2013-03-04 05:50:00,25.2,16.2,30.10,SW,225,0.0,0.0,68,0.00,,,0.00,meteohub,2013-03-04 10:50:00,
2013-03-04 05:55:00,25.2,16.3,30.11,SW,225,0.0,0.0,69,0.00,,,0.00,meteohub,2013-03-04 10:55:00,
2013-03-04 06:00:00,25.2,17.1,30.12,SW,225,0.0,0.0,71,0.00,,,0.00,meteohub,2013-03-04 11:00:00,
2013-03-04 06:05:00,25.2,17.4,30.12,SW,225,0.0,0.0,72,0.00,,,0.00,meteohub,2013-03-04 11:05:00,
2013-03-04 06:10:00,25.0,17.2,30.12,SW,225,0.0,0.0,72,0.00,,,0.00,meteohub,2013-03-04 11:10:00,
2013-03-04 06:15:00,24.8,17.1,30.12,SW,225,0.0,0.0,72,0.00,,,0.00,meteohub,2013-03-04 11:15:00,
2013-03-04 06:20:00,24.6,17.2,30.13,SW,225,0.0,0.0,73,0.00,,,0.00,meteohub,2013-03-04 11:20:00,
2013-03-04 06:25:00,24.4,17.1,30.13,SW,225,0.0,0.0,73,0.00,,,0.00,meteohub,2013-03-04 11:25:00,
2013-03-04 06:30:00,24.3,16.9,30.13,SW,225,0.0,0.0,73,0.00,,,0.00,meteohub,2013-03-04 11:30:00,
2013-03-04 06:35:00,24.3,17.2,30.13,SW,225,0.0,0.0,74,0.00,,,0.00,meteohub,2013-03-04 11:35:00,
2013-03-04 06:40:00,24.3,17.2,30.13,SW,225,0.0,0.0,74,0.00,,,0.00,meteohub,2013-03-04 11:40:00,
2013-03-04 06:46:00,24.3,17.2,30.13,East,90,0.0,0.0,74,0.00,,,0.00,meteohub,2013-03-04 11:46:00,
2013-03-04 06:51:00,24.4,17.1,30.14,South,180,0.0,0.0,73,0.00,,,0.00,meteohub,2013-03-04 11:51:00,
2013-03-04 06:56:00,24.6,17.2,30.14,SW,225,0.0,0.0,73,0.00,,,0.00,meteohub,2013-03-04 11:56:00,
2013-03-04 07:01:00,24.6,17.2,30.14,SW,225,0.0,0.0,73,0.00,,,0.00,meteohub,2013-03-04 12:01:00,
2013-03-04 07:06:00,24.6,17.2,30.14,SW,225,0.0,0.0,73,0.00,,,0.00,meteohub,2013-03-04 12:06:00,
2013-03-04 07:11:00,24.8,17.4,30.14,SW,225,0.0,0.0,73,0.00,,,0.00,meteohub,2013-03-04 12:11:00,
2013-03-04 07:16:00,25.0,17.6,30.14,SW,225,0.0,0.0,73,0.00,,,0.00,meteohub,2013-03-04 12:16:00,
2013-03-04 07:21:00,25.2,17.8,30.14,North,0,0.0,0.0,73,0.00,,,0.00,meteohub,2013-03-04 12:21:00,
2013-03-04 07:26:00,25.3,18.0,30.14,North,0,0.0,0.0,73,0.00,,,0.00,meteohub,2013-03-04 12:26:00,
2013-03-04 07:31:00,25.7,18.3,30.15,North,0,0.0,0.0,73,0.00,,,0.00,meteohub,2013-03-04 12:31:00,
2013-03-04 07:36:00,26.1,18.7,30.15,North,0,0.0,0.0,73,0.00,,,0.00,meteohub,2013-03-04 12:36:00,
2013-03-04 07:41:00,26.4,18.9,30.15,North,0,0.0,0.0,73,0.00,,,0.00,meteohub,2013-03-04 12:41:00,
2013-03-04 07:46:00,27.0,18.9,30.15,North,0,0.0,0.0,71,0.00,,,0.00,meteohub,2013-03-04 12:46:00,
2013-03-04 07:51:00,27.5,19.4,30.15,NE,45,0.0,0.0,71,0.00,,,0.00,meteohub,2013-03-04 12:51:00,
2013-03-04 07:56:00,28.0,19.2,30.16,West,270,0.0,0.0,69,0.00,,,0.00,meteohub,2013-03-04 12:56:00,
2013-03-04 08:02:00,28.8,20.8,30.16,SW,225,0.0,0.0,72,0.00,,,0.00,meteohub,2013-03-04 13:02:00,
2013-03-04 08:07:00,29.3,21.0,30.15,West,270,0.0,0.0,71,0.00,,,0.00,meteohub,2013-03-04 13:07:00,
2013-03-04 08:12:00,30.0,21.0,30.16,NW,315,2.0,0.0,69,0.00,,,0.00,meteohub,2013-03-04 13:12:00,
2013-03-04 08:17:00,30.7,21.0,30.16,South,180,2.0,2.0,67,0.00,,,0.00,meteohub,2013-03-04 13:17:00,
2013-03-04 08:22:00,31.5,21.4,30.16,North,0,2.0,3.0,66,0.00,,,0.00,meteohub,2013-03-04 13:22:00,
2013-03-04 08:27:00,32.4,21.2,30.16,West,270,4.0,4.0,63,0.00,,,0.00,meteohub,2013-03-04 13:27:00,
2013-03-04 08:32:00,32.7,20.3,30.16,SW,225,6.0,6.0,60,0.00,,,0.00,meteohub,2013-03-04 13:32:00,
2013-03-04 08:37:00,33.1,20.3,30.16,SW,225,3.0,6.0,59,0.00,,,0.00,meteohub,2013-03-04 13:37:00,
2013-03-04 08:42:00,33.6,19.6,30.16,NW,315,3.0,8.0,56,0.00,,,0.00,meteohub,2013-03-04 13:42:00,
2013-03-04 08:47:00,33.8,19.4,30.16,East,90,4.0,8.0,55,0.00,,,0.00,meteohub,2013-03-04 13:47:00,
2013-03-04 08:52:00,34.2,19.8,30.16,North,0,4.0,8.0,55,0.00,,,0.00,meteohub,2013-03-04 13:52:00,
2013-03-04 08:57:00,34.5,19.9,30.16,NW,315,2.0,4.0,55,0.00,,,0.00,meteohub,2013-03-04 13:57:00,
2013-03-04 09:02:00,34.7,19.8,30.16,NW,315,2.0,4.0,54,0.00,,,0.00,meteohub,2013-03-04 14:02:00,
2013-03-04 09:07:00,35.1,19.6,30.16,NW,315,2.0,4.0,53,0.00,,,0.00,meteohub,2013-03-04 14:07:00,
2013-03-04 09:12:00,35.1,19.6,30.16,SW,225,4.0,5.0,53,0.00,,,0.00,meteohub,2013-03-04 14:12:00,
2013-03-04 09:17:00,34.9,19.0,30.16,SW,225,2.0,7.0,52,0.00,,,0.00,meteohub,2013-03-04 14:17:00,
2013-03-04 09:22:00,35.4,19.6,30.16,SW,225,5.0,11.0,52,0.00,,,0.00,meteohub,2013-03-04 14:22:00,
2013-03-04 09:27:00,35.6,18.9,30.16,SW,225,4.0,11.0,50,0.00,,,0.00,meteohub,2013-03-04 14:27:00,
2013-03-04 09:32:00,35.8,18.0,30.16,SW,225,7.0,8.0,48,0.00,,,0.00,meteohub,2013-03-04 14:32:00,
2013-03-04 09:37:00,35.6,17.8,30.16,SW,225,3.0,8.0,48,0.00,,,0.00,meteohub,2013-03-04 14:37:00,
2013-03-04 09:42:00,36.0,18.1,30.16,West,270,6.0,7.0,48,0.00,,,0.00,meteohub,2013-03-04 14:42:00,
2013-03-04 09:48:00,36.0,18.1,30.15,North,0,6.0,8.0,48,0.00,,,0.00,meteohub,2013-03-04 14:48:00,
2013-03-04 09:53:00,36.5,19.2,30.16,West,270,3.0,8.0,49,0.00,,,0.00,meteohub,2013-03-04 14:53:00,
2013-03-04 09:58:00,36.9,19.0,30.16,West,270,4.0,8.0,48,0.00,,,0.00,meteohub,2013-03-04 14:58:00,
2013-03-04 10:03:00,37.0,19.2,30.16,West,270,4.0,8.0,48,0.00,,,0.00,meteohub,2013-03-04 15:03:00,
2013-03-04 10:08:00,37.4,21.4,30.16,West,270,4.0,7.0,52,0.00,,,0.00,meteohub,2013-03-04 15:08:00,
2013-03-04 10:13:00,37.6,21.6,30.16,West,270,4.0,7.0,52,0.00,,,0.00,meteohub,2013-03-04 15:13:00,
2013-03-04 10:18:00,38.5,21.9,30.16,NW,315,4.0,6.0,51,0.00,,,0.00,meteohub,2013-03-04 15:18:00,
2013-03-04 10:23:00,38.1,20.7,30.16,NW,315,3.0,8.0,49,0.00,,,0.00,meteohub,2013-03-04 15:23:00,
2013-03-04 10:28:00,38.5,21.0,30.16,West,270,6.0,8.0,49,0.00,,,0.00,meteohub,2013-03-04 15:28:00,
2013-03-04 10:33:00,38.7,21.2,30.15,SW,225,5.0,8.0,49,0.00,,,0.00,meteohub,2013-03-04 15:33:00,
2013-03-04 10:38:00,38.7,21.2,30.15,North,0,6.0,6.0,49,0.00,,,0.00,meteohub,2013-03-04 15:38:00,
2013-03-04 10:43:00,38.8,21.4,30.15,North,0,2.0,6.0,49,0.00,,,0.00,meteohub,2013-03-04 15:43:00,
2013-03-04 10:48:00,39.4,20.8,30.14,SW,225,8.0,8.0,47,0.00,,,0.00,meteohub,2013-03-04 15:48:00,
2013-03-04 10:54:00,39.6,20.5,30.15,NW,315,4.0,8.0,46,0.00,,,0.00,meteohub,2013-03-04 15:54:00,
2013-03-04 10:59:00,39.7,20.1,30.14,NW,315,5.0,10.0,45,0.00,,,0.00,meteohub,2013-03-04 15:59:00,
2013-03-04 11:04:00,39.6,19.9,30.14,SE,135,3.0,10.0,45,0.00,,,0.00,meteohub,2013-03-04 16:04:00,
2013-03-04 11:09:00,40.3,21.2,30.14,West,270,4.0,10.0,46,0.00,,,0.00,meteohub,2013-03-04 16:09:00,
2013-03-04 11:14:00,40.6,21.6,30.14,SW,225,6.0,8.0,46,0.00,,,0.00,meteohub,2013-03-04 16:14:00,
2013-03-04 11:19:00,40.6,21.0,30.14,West,270,5.0,8.0,45,0.00,,,0.00,meteohub,2013-03-04 16:19:00,
2013-03-04 11:24:00,40.8,21.6,30.14,SW,225,6.0,8.0,46,0.00,,,0.00,meteohub,2013-03-04 16:24:00,
2013-03-04 11:29:00,41.2,20.8,30.14,North,0,4.0,8.0,44,0.00,,,0.00,meteohub,2013-03-04 16:29:00,
2013-03-04 11:34:00,41.4,21.6,30.14,NE,45,3.0,7.0,45,0.00,,,0.00,meteohub,2013-03-04 16:34:00,
2013-03-04 11:39:00,42.1,21.7,30.14,West,270,6.0,7.0,44,0.00,,,0.00,meteohub,2013-03-04 16:39:00,
2013-03-04 11:44:00,42.4,22.1,30.13,SW,225,4.0,7.0,44,0.00,,,0.00,meteohub,2013-03-04 16:44:00,
2013-03-04 11:49:00,43.0,22.1,30.13,North,0,4.0,7.0,43,0.00,,,0.00,meteohub,2013-03-04 16:49:00,
2013-03-04 11:54:00,42.6,21.7,30.13,West,270,4.0,7.0,43,0.00,,,0.00,meteohub,2013-03-04 16:54:00,
2013-03-04 11:59:00,42.8,21.4,30.13,West,270,5.0,6.0,42,0.00,,,0.00,meteohub,2013-03-04 16:59:00,
2013-03-04 12:04:00,42.6,21.2,30.12,West,270,5.0,6.0,42,0.00,,,0.00,meteohub,2013-03-04 17:04:00,
2013-03-04 12:09:00,42.8,19.6,30.12,NW,315,4.0,6.0,39,0.00,,,0.00,meteohub,2013-03-04 17:09:00,
2013-03-04 12:15:00,43.2,20.5,30.12,West,270,8.0,8.0,40,0.00,,,0.00,meteohub,2013-03-04 17:15:00,
2013-03-04 12:20:00,43.3,21.2,30.12,West,270,6.0,8.0,41,0.00,,,0.00,meteohub,2013-03-04 17:20:00,
2013-03-04 12:26:00,43.3,18.1,30.12,NW,315,4.0,8.0,36,0.00,,,0.00,meteohub,2013-03-04 17:26:00,
2013-03-04 12:31:00,43.9,19.2,30.11,NW,315,2.0,8.0,37,0.00,,,0.00,meteohub,2013-03-04 17:31:00,
2013-03-04 12:36:00,44.8,22.5,30.11,North,0,7.0,8.0,41,0.00,,,0.00,meteohub,2013-03-04 17:36:00,
2013-03-04 12:41:00,45.5,21.4,30.11,SE,135,4.0,7.0,38,0.00,,,0.00,meteohub,2013-03-04 17:41:00,
2013-03-04 12:46:00,45.9,21.7,30.11,SE,135,3.0,7.0,38,0.00,,,0.00,meteohub,2013-03-04 17:46:00,
2013-03-04 12:51:00,46.0,19.9,30.11,WNW,293,4.0,7.0,35,0.00,,,0.00,meteohub,2013-03-04 17:51:00,
2013-03-04 12:56:00,46.0,19.2,30.11,West,270,4.0,5.0,34,0.00,,,0.00,meteohub,2013-03-04 17:56:00,
2013-03-04 13:01:00,46.0,19.2,30.11,South,180,5.0,5.0,34,0.00,,,0.00,meteohub,2013-03-04 18:01:00,
2013-03-04 13:07:00,45.7,17.4,30.10,South,180,2.0,6.0,32,0.00,,,0.00,meteohub,2013-03-04 18:07:00,
2013-03-04 13:12:00,46.6,21.0,30.09,NE,45,2.0,6.0,36,0.00,,,0.00,meteohub,2013-03-04 18:12:00,
2013-03-04 13:17:00,47.3,21.0,30.10,SW,225,8.0,8.0,35,0.00,,,0.00,meteohub,2013-03-04 18:17:00,
2013-03-04 13:22:00,46.6,19.8,30.09,NW,315,8.0,8.0,34,0.00,,,0.00,meteohub,2013-03-04 18:22:00,
2013-03-04 13:27:00,46.8,20.5,30.09,West,270,3.0,8.0,35,0.00,,,0.00,meteohub,2013-03-04 18:27:00,
2013-03-04 13:29:00,46.9,20.7,30.10,East,90,2.0,8.0,35,0.00,,,0.00,meteohub,2013-03-04 18:29:00,
2013-03-04 13:30:00,47.1,20.8,30.09,North,0,2.0,8.0,35,0.00,,,0.00,meteohub,2013-03-04 18:30:00,
2013-03-04 13:35:00,47.7,21.4,30.09,West,270,3.0,8.0,35,0.00,,,0.00,meteohub,2013-03-04 18:35:00,
2013-03-04 13:40:00,47.7,19.9,30.09,SW,225,3.0,7.0,33,0.00,,,0.00,meteohub,2013-03-04 18:40:00,
2013-03-04 13:45:00,48.0,20.3,30.09,NW,315,4.0,7.0,33,0.00,,,0.00,meteohub,2013-03-04 18:45:00,
2013-03-04 13:50:00,48.4,21.4,30.08,West,270,4.0,7.0,34,0.00,,,0.00,meteohub,2013-03-04 18:50:00,
2013-03-04 13:55:00,48.6,19.9,30.08,SW,225,5.0,6.0,32,0.00,,,0.00,meteohub,2013-03-04 18:55:00,
2013-03-04 14:00:00,48.6,19.9,30.08,NW,315,4.0,6.0,32,0.00,,,0.00,meteohub,2013-03-04 19:00:00,
2013-03-04 14:06:00,48.2,19.8,30.09,SW,225,8.0,8.0,32,0.00,,,0.00,meteohub,2013-03-04 19:06:00,
2013-03-04 14:11:00,47.8,20.1,30.08,SW,225,5.0,8.0,33,0.00,,,0.00,meteohub,2013-03-04 19:11:00,
2013-03-04 14:16:00,47.7,18.5,30.08,West,270,8.0,10.0,31,0.00,,,0.00,meteohub,2013-03-04 19:16:00,
2013-03-04 14:21:00,47.8,20.1,30.07,NE,45,7.0,10.0,33,0.00,,,0.00,meteohub,2013-03-04 19:21:00,
2013-03-04 14:26:00,48.2,20.5,30.08,NW,315,8.0,10.0,33,0.00,,,0.00,meteohub,2013-03-04 19:26:00,
2013-03-04 14:31:00,48.2,18.1,30.08,NE,45,7.0,8.0,30,0.00,,,0.00,meteohub,2013-03-04 19:31:00,
2013-03-04 14:36:00,48.6,20.8,30.07,West,270,6.0,8.0,33,0.00,,,0.00,meteohub,2013-03-04 19:36:00,
2013-03-04 14:41:00,48.9,19.6,30.07,SW,225,3.0,8.0,31,0.00,,,0.00,meteohub,2013-03-04 19:41:00,
2013-03-04 14:46:00,49.3,20.7,30.07,SW,225,4.0,7.0,32,0.00,,,0.00,meteohub,2013-03-04 19:46:00,
2013-03-04 14:51:00,49.5,19.2,30.06,West,270,4.0,7.0,30,0.00,,,0.00,meteohub,2013-03-04 19:51:00,
2013-03-04 14:56:00,49.3,19.2,30.06,North,0,2.0,6.0,30,0.00,,,0.00,meteohub,2013-03-04 19:56:00,
2013-03-04 15:02:00,49.8,21.2,30.06,South,180,2.0,6.0,32,0.00,,,0.00,meteohub,2013-03-04 20:02:00,
2013-03-04 15:07:00,49.6,19.4,30.06,West,270,5.0,6.0,30,0.00,,,0.00,meteohub,2013-03-04 20:07:00,
2013-03-04 15:12:00,49.8,19.6,30.06,West,270,5.0,5.0,30,0.00,,,0.00,meteohub,2013-03-04 20:12:00,
2013-03-04 15:17:00,50.7,18.9,30.06,SE,135,4.0,6.0,28,0.00,,,0.00,meteohub,2013-03-04 20:17:00,
2013-03-04 15:22:00,53.2,21.0,30.05,East,90,1.0,6.0,28,0.00,,,0.00,meteohub,2013-03-04 20:22:00,
2013-03-04 15:27:00,54.5,19.4,30.05,West,270,5.0,6.0,25,0.00,,,0.00,meteohub,2013-03-04 20:27:00,
2013-03-04 15:32:00,53.8,17.8,30.05,West,270,2.0,8.0,24,0.00,,,0.00,meteohub,2013-03-04 20:32:00,
2013-03-04 15:37:00,54.7,18.5,30.05,West,270,5.0,8.0,24,0.00,,,0.00,meteohub,2013-03-04 20:37:00,
2013-03-04 15:43:00,54.7,18.5,30.05,South,180,2.0,8.0,24,0.00,,,0.00,meteohub,2013-03-04 20:43:00,
2013-03-04 15:47:00,55.2,19.0,30.05,West,270,4.0,8.0,24,0.00,,,0.00,meteohub,2013-03-04 20:47:00,
2013-03-04 15:53:00,55.4,21.0,30.04,North,0,4.0,8.0,26,0.00,,,0.00,meteohub,2013-03-04 20:53:00,
2013-03-04 15:58:00,54.7,18.5,30.05,West,270,4.0,8.0,24,0.00,,,0.00,meteohub,2013-03-04 20:58:00,
2013-03-04 16:03:00,52.5,17.8,30.05,North,0,4.0,7.0,25,0.00,,,0.00,meteohub,2013-03-04 21:03:00,
2013-03-04 16:08:00,51.8,18.0,30.04,NW,315,4.0,7.0,26,0.00,,,0.00,meteohub,2013-03-04 21:08:00,
2013-03-04 16:13:00,51.4,19.4,30.05,NE,45,3.0,5.0,28,0.00,,,0.00,meteohub,2013-03-04 21:13:00,
2013-03-04 16:18:00,51.3,19.2,30.06,NW,315,3.0,6.0,28,0.00,,,0.00,meteohub,2013-03-04 21:18:00,
2013-03-04 16:23:00,51.1,19.0,30.05,NE,45,3.0,6.0,28,0.00,,,0.00,meteohub,2013-03-04 21:23:00,
2013-03-04 16:28:00,51.1,19.0,30.06,North,0,4.0,4.0,28,0.00,,,0.00,meteohub,2013-03-04 21:28:00,
2013-03-04 16:33:00,51.1,19.0,30.06,North,0,2.0,4.0,28,0.00,,,0.00,meteohub,2013-03-04 21:33:00,
2013-03-04 16:38:00,51.1,19.0,30.06,North,0,2.0,4.0,28,0.00,,,0.00,meteohub,2013-03-04 21:38:00,
2013-03-04 16:43:00,51.1,19.0,30.06,SW,225,3.0,5.0,28,0.00,,,0.00,meteohub,2013-03-04 21:43:00,
2013-03-04 16:49:00,51.3,20.1,30.06,NW,315,3.0,5.0,29,0.00,,,0.00,meteohub,2013-03-04 21:49:00,
2013-03-04 16:54:00,51.3,20.1,30.06,NW,315,2.0,5.0,29,0.00,,,0.00,meteohub,2013-03-04 21:54:00,
2013-03-04 16:59:00,51.1,19.0,30.06,East,90,2.0,4.0,28,0.00,,,0.00,meteohub,2013-03-04 21:59:00,
2013-03-04 17:04:00,50.9,18.9,30.06,West,270,1.0,5.0,28,0.00,,,0.00,meteohub,2013-03-04 22:04:00,
2013-03-04 17:10:00,50.9,19.8,30.06,East,90,1.0,5.0,29,0.00,,,0.00,meteohub,2013-03-04 22:10:00,
2013-03-04 17:15:00,50.9,20.5,30.06,South,180,4.0,5.0,30,0.00,,,0.00,meteohub,2013-03-04 22:15:00,
2013-03-04 17:20:00,50.7,19.6,30.07,North,0,2.0,3.0,29,0.00,,,0.00,meteohub,2013-03-04 22:20:00,
2013-03-04 17:25:00,50.7,19.6,30.07,SE,135,0.0,4.0,29,0.00,,,0.00,meteohub,2013-03-04 22:25:00,
2013-03-04 17:30:00,50.5,21.7,30.07,South,180,1.0,4.0,32,0.00,,,0.00,meteohub,2013-03-04 22:30:00,
2013-03-04 17:35:00,50.4,20.8,30.07,South,180,2.0,4.0,31,0.00,,,0.00,meteohub,2013-03-04 22:35:00,
2013-03-04 17:40:00,50.2,20.7,30.07,West,270,2.0,3.0,31,0.00,,,0.00,meteohub,2013-03-04 22:40:00,
2013-03-04 17:45:00,49.8,21.2,30.07,West,270,2.0,3.0,32,0.00,,,0.00,meteohub,2013-03-04 22:45:00,
2013-03-04 17:50:00,49.6,21.7,30.07,SW,225,2.0,3.0,33,0.00,,,0.00,meteohub,2013-03-04 22:50:00,
2013-03-04 17:55:00,49.5,21.6,30.07,West,270,0.0,3.0,33,0.00,,,0.00,meteohub,2013-03-04 22:55:00,
2013-03-04 18:00:00,49.1,21.9,30.07,West,270,0.0,2.0,34,0.00,,,0.00,meteohub,2013-03-04 23:00:00,
2013-03-04 18:05:00,48.6,22.1,30.07,West,270,0.0,2.0,35,0.00,,,0.00,meteohub,2013-03-04 23:05:00,
2013-03-04 18:10:00,47.8,21.6,30.07,West,270,0.0,0.0,35,0.00,,,0.00,meteohub,2013-03-04 23:10:00,
2013-03-04 18:16:00,47.3,21.7,30.07,West,270,0.0,0.0,36,0.00,,,0.00,meteohub,2013-03-04 23:16:00,
2013-03-04 18:21:00,46.6,21.0,30.08,West,270,0.0,0.0,36,0.00,,,0.00,meteohub,2013-03-04 23:21:00,
2013-03-04 18:26:00,45.9,21.7,30.08,West,270,0.0,0.0,38,0.00,,,0.00,meteohub,2013-03-04 23:26:00,
2013-03-04 18:31:00,45.1,22.8,30.08,West,270,0.0,0.0,41,0.00,,,0.00,meteohub,2013-03-04 23:31:00,
2013-03-04 18:36:00,44.4,22.8,30.08,West,270,0.0,0.0,42,0.00,,,0.00,meteohub,2013-03-04 23:36:00,
2013-03-04 18:41:00,43.7,22.6,30.08,West,270,0.0,0.0,43,0.00,,,0.00,meteohub,2013-03-04 23:41:00,
2013-03-04 18:46:00,43.3,22.8,30.09,East,90,0.0,0.0,44,0.00,,,0.00,meteohub,2013-03-04 23:46:00,
2013-03-04 18:51:00,42.8,23.0,30.09,East,90,0.0,0.0,45,0.00,,,0.00,meteohub,2013-03-04 23:51:00,
2013-03-04 18:56:00,42.4,23.7,30.09,East,90,0.0,0.0,47,0.00,,,0.00,meteohub,2013-03-04 23:56:00,
2013-03-04 19:01:00,42.1,23.4,30.09,East,90,0.0,0.0,47,0.00,,,0.00,meteohub,2013-03-05 00:01:00,
2013-03-04 19:06:00,41.7,23.5,30.09,East,90,0.0,0.0,48,0.00,,,0.00,meteohub,2013-03-05 00:06:00,
2013-03-04 19:11:00,41.0,23.4,30.09,East,90,0.0,0.0,49,0.00,,,0.00,meteohub,2013-03-05 00:11:00,
2013-03-04 19:16:00,40.5,23.4,30.09,East,90,0.0,0.0,50,0.00,,,0.00,meteohub,2013-03-05 00:16:00,
2013-03-04 19:22:00,39.9,24.3,30.09,East,90,0.0,0.0,53,0.00,,,0.00,meteohub,2013-03-05 00:22:00,
2013-03-04 19:27:00,39.6,24.3,30.09,East,90,0.0,0.0,54,0.00,,,0.00,meteohub,2013-03-05 00:27:00,
2013-03-04 19:32:00,39.0,24.3,30.09,East,90,0.0,0.0,55,0.00,,,0.00,meteohub,2013-03-05 00:32:00,
2013-03-04 19:37:00,38.5,24.1,30.09,East,90,0.0,0.0,56,0.00,,,0.00,meteohub,2013-03-05 00:37:00,
2013-03-04 19:42:00,38.1,24.6,30.09,West,270,0.0,0.0,58,0.00,,,0.00,meteohub,2013-03-05 00:42:00,
2013-03-04 19:47:00,37.8,25.2,30.09,West,270,0.0,0.0,60,0.00,,,0.00,meteohub,2013-03-05 00:47:00,
2013-03-04 19:52:00,37.6,25.3,30.10,West,270,0.0,0.0,61,0.00,,,0.00,meteohub,2013-03-05 00:52:00,
2013-03-04 19:57:00,37.0,24.1,30.10,West,270,0.0,0.0,59,0.00,,,0.00,meteohub,2013-03-05 00:57:00,
2013-03-04 20:02:00,36.7,24.1,30.10,West,270,0.0,0.0,60,0.00,,,0.00,meteohub,2013-03-05 01:02:00,
2013-03-04 20:07:00,36.3,24.1,30.10,West,270,0.0,0.0,61,0.00,,,0.00,meteohub,2013-03-05 01:07:00,
2013-03-04 20:12:00,36.0,23.9,30.11,West,270,0.0,0.0,61,0.00,,,0.00,meteohub,2013-03-05 01:12:00,
2013-03-04 20:17:00,35.8,23.7,30.11,West,270,0.0,0.0,61,0.00,,,0.00,meteohub,2013-03-05 01:17:00,
2013-03-04 20:23:00,35.6,23.9,30.11,East,90,0.0,0.0,62,0.00,,,0.00,meteohub,2013-03-05 01:23:00,
2013-03-04 20:28:00,35.4,24.8,30.10,East,90,0.0,0.0,65,0.00,,,0.00,meteohub,2013-03-05 01:28:00,
2013-03-04 20:33:00,35.2,24.6,30.11,East,90,0.0,0.0,65,0.00,,,0.00,meteohub,2013-03-05 01:33:00,
2013-03-04 20:38:00,35.2,24.6,30.11,SW,225,0.0,0.0,65,0.00,,,0.00,meteohub,2013-03-05 01:38:00,
2013-03-04 20:43:00,35.2,24.6,30.10,SW,225,0.0,0.0,65,0.00,,,0.00,meteohub,2013-03-05 01:43:00,
2013-03-04 20:48:00,35.1,24.4,30.11,SW,225,0.0,0.0,65,0.00,,,0.00,meteohub,2013-03-05 01:48:00,
2013-03-04 20:53:00,34.7,24.1,30.11,SW,225,0.0,0.0,65,0.00,,,0.00,meteohub,2013-03-05 01:53:00,
2013-03-04 20:58:00,34.9,24.3,30.11,SW,225,0.0,0.0,65,0.00,,,0.00,meteohub,2013-03-05 01:58:00,
2013-03-04 21:03:00,34.7,24.4,30.11,NE,45,0.0,0.0,66,0.00,,,0.00,meteohub,2013-03-05 02:03:00,
2013-03-04 21:09:00,34.7,24.4,30.11,West,270,0.0,0.0,66,0.00,,,0.00,meteohub,2013-03-05 02:09:00,
2013-03-04 21:14:00,34.7,24.4,30.11,West,270,0.0,0.0,66,0.00,,,0.00,meteohub,2013-03-05 02:14:00,
2013-03-04 21:19:00,34.5,24.3,30.10,West,270,0.0,0.0,66,0.00,,,0.00,meteohub,2013-03-05 02:19:00,
2013-03-04 21:24:00,34.5,24.3,30.11,West,270,0.0,0.0,66,0.00,,,0.00,meteohub,2013-03-05 02:24:00,
2013-03-04 21:29:00,34.5,24.3,30.11,East,90,0.0,0.0,66,0.00,,,0.00,meteohub,2013-03-05 02:29:00,
2013-03-04 21:34:00,34.5,23.9,30.11,East,90,0.0,0.0,65,0.00,,,0.00,meteohub,2013-03-05 02:34:00,
2013-03-04 21:39:00,34.3,24.1,30.11,SW,225,0.0,0.0,66,0.00,,,0.00,meteohub,2013-03-05 02:39:00,
2013-03-04 21:44:00,34.3,24.1,30.11,SW,225,0.0,0.0,66,0.00,,,0.00,meteohub,2013-03-05 02:44:00,
2013-03-04 21:49:00,34.2,24.4,30.11,SW,225,0.0,0.0,67,0.00,,,0.00,meteohub,2013-03-05 02:49:00,
2013-03-04 21:54:00,34.0,24.3,30.12,SW,225,0.0,0.0,67,0.00,,,0.00,meteohub,2013-03-05 02:54:00,
2013-03-04 21:59:00,33.8,24.1,30.12,SW,225,0.0,0.0,67,0.00,,,0.00,meteohub,2013-03-05 02:59:00,
2013-03-04 22:04:00,33.6,24.3,30.12,SW,225,0.0,0.0,68,0.00,,,0.00,meteohub,2013-03-05 03:04:00,
2013-03-04 22:10:00,33.4,23.7,30.12,SW,225,0.0,0.0,67,0.00,,,0.00,meteohub,2013-03-05 03:10:00,
2013-03-04 22:15:00,33.4,24.1,30.12,SW,225,0.0,0.0,68,0.00,,,0.00,meteohub,2013-03-05 03:15:00,
2013-03-04 22:20:00,33.6,24.3,30.12,SW,225,0.0,0.0,68,0.00,,,0.00,meteohub,2013-03-05 03:20:00,
2013-03-04 22:25:00,34.0,24.3,30.12,SW,225,0.0,0.0,67,0.00,,,0.00,meteohub,2013-03-05 03:25:00,
2013-03-04 22:30:00,33.8,24.4,30.12,SW,225,0.0,0.0,68,0.00,,,0.00,meteohub,2013-03-05 03:30:00,
2013-03-04 22:35:00,33.8,24.4,30.12,SW,225,0.0,0.0,68,0.00,,,0.00,meteohub,2013-03-05 03:35:00,
2013-03-04 22:40:00,33.8,24.8,30.12,SW,225,0.0,0.0,69,0.00,,,0.00,meteohub,2013-03-05 03:40:00,
2013-03-04 22:45:00,34.0,25.2,30.12,SW,225,0.0,0.0,70,0.00,,,0.00,meteohub,2013-03-05 03:45:00,
2013-03-04 22:50:00,34.3,25.5,30.12,East,90,0.0,0.0,70,0.00,,,0.00,meteohub,2013-03-05 03:50:00,
2013-03-04 22:56:00,34.9,25.7,30.12,SW,225,0.0,0.0,69,0.00,,,0.00,meteohub,2013-03-05 03:56:00,
2013-03-04 23:01:00,34.9,25.3,30.12,SW,225,0.0,0.0,68,0.00,,,0.00,meteohub,2013-03-05 04:01:00,
2013-03-04 23:06:00,34.9,25.3,30.12,SW,225,0.0,0.0,68,0.00,,,0.00,meteohub,2013-03-05 04:06:00,
2013-03-04 23:11:00,35.2,25.7,30.11,SW,225,0.0,0.0,68,0.00,,,0.00,meteohub,2013-03-05 04:11:00,
2013-03-04 23:16:00,35.2,26.1,30.12,SW,225,0.0,0.0,69,0.00,,,0.00,meteohub,2013-03-05 04:16:00,
2013-03-04 23:21:00,35.4,26.2,30.11,South,180,0.0,0.0,69,0.00,,,0.00,meteohub,2013-03-05 04:21:00,
2013-03-04 23:26:00,35.4,26.2,30.12,South,180,0.0,1.0,69,0.00,,,0.00,meteohub,2013-03-05 04:26:00,
2013-03-04 23:32:00,35.4,26.2,30.12,South,180,0.0,1.0,69,0.00,,,0.00,meteohub,2013-03-05 04:32:00,
2013-03-04 23:37:00,35.2,26.1,30.12,South,180,0.0,0.0,69,0.00,,,0.00,meteohub,2013-03-05 04:37:00,
2013-03-04 23:42:00,35.2,25.7,30.11,South,180,0.0,0.0,68,0.00,,,0.00,meteohub,2013-03-05 04:42:00,
2013-03-04 23:47:00,35.4,25.5,30.12,South,180,0.0,0.0,67,0.00,,,0.00,meteohub,2013-03-05 04:47:00,
2013-03-04 23:52:00,35.4,25.5,30.12,South,180,0.0,0.0,67,0.00,,,0.00,meteohub,2013-03-05 04:52:00,
2013-03-04 23:57:00,35.6,25.0,30.12,South,180,0.0,0.0,65,0.00,,,0.00,meteohub,2013-03-05 04:57:00,